createdAt,value
2016-05-23T00:00:38.840Z,58.81
2016-05-23T00:01:38.812Z,58.91
2016-05-23T00:02:38.815Z,58.81
2016-05-23T00:03:38.630Z,58.81
2016-05-23T00:04:38.789Z,59
2016-05-23T00:05:38.776Z,59
2016-05-23T00:06:38.763Z,59.39
2016-05-23T00:07:39.141Z,59.1
2016-05-23T00:08:38.722Z,59.2
2016-05-23T00:09:38.709Z,58.81
2016-05-23T00:10:38.711Z,58.81
2016-05-23T00:11:38.714Z,59
2016-05-23T00:12:38.686Z,58.72
2016-05-23T00:13:38.672Z,59
2016-05-23T00:14:38.659Z,59
2016-05-23T00:15:39.146Z,58.81
2016-05-23T00:16:38.666Z,58.91
2016-05-23T00:17:38.621Z,58.62
2016-05-23T00:18:38.607Z,59.2
2016-05-23T00:19:38.439Z,58.72
2016-05-23T00:20:38.582Z,59.48
2016-05-23T00:21:38.569Z,58.81
2016-05-23T00:22:38.399Z,58.81
2016-05-23T00:23:39.138Z,58.81
2016-05-23T00:24:38.530Z,58.91
2016-05-23T00:25:38.517Z,59
2016-05-23T00:26:38.505Z,59.1
2016-05-23T00:27:38.491Z,59.68
2016-05-23T00:28:38.479Z,59.68
2016-05-23T00:29:38.481Z,59.3
2016-05-23T00:30:38.296Z,59.1
2016-05-23T00:31:38.440Z,58.91
2016-05-23T00:32:38.426Z,59.39
2016-05-23T00:33:38.429Z,58.91
2016-05-23T00:34:38.401Z,59.1
2016-05-23T00:35:38.231Z,59.2
2016-05-23T00:36:38.375Z,59.39
2016-05-23T00:37:38.378Z,58.72
2016-05-23T00:38:38.365Z,58.91
2016-05-23T00:39:39.164Z,59.68
2016-05-23T00:40:38.323Z,59.68
2016-05-23T00:41:38.310Z,59.58
2016-05-23T00:42:38.297Z,59.1
2016-05-23T00:43:38.285Z,59.48
2016-05-23T00:44:38.366Z,59.3
2016-05-23T00:45:38.274Z,59.2
2016-05-23T00:46:38.261Z,59.39
2016-05-23T00:47:38.452Z,59.87
2016-05-23T00:48:38.235Z,59.39
2016-05-23T00:49:38.222Z,59.68
2016-05-23T00:50:38.054Z,59.39
2016-05-23T00:51:38.197Z,59.87
2016-05-23T00:52:38.199Z,59.68
2016-05-23T00:53:38.170Z,59.78
2016-05-23T00:54:38.002Z,59.58
2016-05-23T00:55:38.442Z,59.58
2016-05-23T00:56:38.147Z,59.68
2016-05-23T00:57:38.119Z,59.78
2016-05-23T00:58:38.106Z,59.3
2016-05-23T00:59:38.406Z,59.39
2016-05-23T01:00:38.080Z,59.39
2016-05-23T01:01:38.068Z,59.3
2016-05-23T01:02:38.054Z,59.3
2016-05-23T01:03:38.447Z,59.1
2016-05-23T01:04:38.029Z,59.68
2016-05-23T01:05:38.031Z,59.1
2016-05-23T01:06:38.018Z,59.87
2016-05-23T01:07:37.989Z,59.78
2016-05-23T01:08:37.977Z,59.39
2016-05-23T01:09:37.808Z,59.39
2016-05-23T01:10:38.107Z,59.68
2016-05-23T01:11:37.938Z,59.39
2016-05-23T01:12:37.941Z,59
2016-05-23T01:13:37.928Z,59.58
2016-05-23T01:14:37.821Z,59.2
2016-05-23T01:15:37.902Z,59.3
2016-05-23T01:16:37.889Z,59.2
2016-05-23T01:17:37.891Z,59.39
2016-05-23T01:18:37.894Z,59.39
2016-05-23T01:19:37.850Z,59.78
2016-05-23T01:20:37.681Z,59.58
2016-05-23T01:21:37.824Z,59.87
2016-05-23T01:22:37.811Z,59.2
2016-05-23T01:23:37.798Z,59.68
2016-05-23T01:24:37.785Z,59.3
2016-05-23T01:25:37.773Z,59.2
2016-05-23T01:26:38.118Z,59.39
2016-05-23T01:27:37.591Z,59.3
2016-05-23T01:28:37.734Z,59.48
2016-05-23T01:29:37.736Z,59.68
2016-05-23T01:30:37.707Z,59.3
2016-05-23T01:31:37.710Z,59.48
2016-05-23T01:32:37.682Z,59.39
2016-05-23T01:33:37.669Z,59.3
2016-05-23T01:34:38.203Z,59.58
2016-05-23T01:35:37.643Z,59.58
2016-05-23T01:36:37.630Z,59.3
2016-05-23T01:37:37.617Z,59.39
2016-05-23T01:38:37.603Z,59.58
2016-05-23T01:39:37.607Z,59.58
2016-05-23T01:40:37.578Z,59.48
2016-05-23T01:41:37.425Z,59.48
2016-05-23T01:42:38.115Z,59.39
2016-05-23T01:43:37.539Z,59.68
2016-05-23T01:44:37.558Z,59.87
2016-05-23T01:45:37.514Z,59.1
2016-05-23T01:46:37.500Z,59.1
2016-05-23T01:47:37.535Z,59
2016-05-23T01:48:37.491Z,59.1
2016-05-23T01:49:37.477Z,59.2
2016-05-23T01:50:38.121Z,59.2
2016-05-23T01:51:37.452Z,59.2
2016-05-23T01:52:37.438Z,59.39
2016-05-23T01:53:37.426Z,58.91
2016-05-23T01:54:37.413Z,58.81
2016-05-23T01:55:37.400Z,58.91
2016-05-23T01:56:37.387Z,58.91
2016-05-23T01:57:37.374Z,59.2
2016-05-23T01:58:37.408Z,59
2016-05-23T01:59:37.364Z,59.2
2016-05-23T02:00:37.335Z,59.1
2016-05-23T02:01:37.322Z,59
2016-05-23T02:02:37.310Z,59.2
2016-05-23T02:03:37.140Z,59.2
2016-05-23T02:04:37.283Z,59
2016-05-23T02:05:37.271Z,59
2016-05-23T02:06:37.429Z,59.1
2016-05-23T02:07:37.088Z,58.72
2016-05-23T02:08:37.248Z,59
2016-05-23T02:09:37.235Z,58.72
2016-05-23T02:10:37.222Z,58.81
2016-05-23T02:11:37.209Z,58.81
2016-05-23T02:12:37.180Z,59.3
2016-05-23T02:13:37.166Z,59.2
2016-05-23T02:14:38.014Z,59
2016-05-23T02:15:37.157Z,58.81
2016-05-23T02:16:37.144Z,59
2016-05-23T02:17:37.130Z,59.3
2016-05-23T02:18:37.118Z,58.81
2016-05-23T02:19:37.105Z,58.91
2016-05-23T02:20:37.092Z,58.91
2016-05-23T02:21:37.080Z,58.91
2016-05-23T02:22:37.457Z,59.39
2016-05-23T02:23:37.054Z,58.91
2016-05-23T02:24:37.041Z,58.91
2016-05-23T02:25:37.027Z,58.91
2016-05-23T02:26:37.030Z,59.3
2016-05-23T02:27:37.002Z,58.81
2016-05-23T02:28:37.004Z,58.91
2016-05-23T02:29:37.335Z,58.91
2016-05-23T02:30:37.416Z,58.72
2016-05-23T02:31:36.950Z,58.72
2016-05-23T02:32:36.954Z,58.91
2016-05-23T02:33:36.940Z,59
2016-05-23T02:34:36.912Z,58.91
2016-05-23T02:35:36.898Z,58.97
2016-05-23T02:36:36.900Z,58.81
2016-05-23T02:37:36.873Z,59.58
2016-05-23T02:38:36.859Z,58.91
2016-05-23T02:39:36.847Z,58.72
2016-05-23T02:40:36.849Z,58.81
2016-05-23T02:41:36.821Z,59.1
2016-05-23T02:42:36.808Z,58.72
2016-05-23T02:43:36.811Z,58.72
2016-05-23T02:44:36.781Z,58.91
2016-05-23T02:45:36.800Z,58.81
2016-05-23T02:46:36.756Z,58.81
2016-05-23T02:47:36.602Z,58.72
2016-05-23T02:48:36.746Z,58.81
2016-05-23T02:49:36.733Z,58.91
2016-05-23T02:50:36.720Z,59.2
2016-05-23T02:51:36.707Z,58.81
2016-05-23T02:52:36.694Z,58.81
2016-05-23T02:53:36.680Z,58.78
2016-05-23T02:54:36.668Z,58.69
2016-05-23T02:55:36.655Z,58.91
2016-05-23T02:56:36.643Z,58.91
2016-05-23T02:57:36.474Z,59
2016-05-23T02:58:36.616Z,58.59
2016-05-23T02:59:36.884Z,59.27
2016-05-23T03:00:36.606Z,59
2016-05-23T03:01:36.577Z,58.81
2016-05-23T03:02:36.565Z,58.72
2016-05-23T03:03:36.551Z,58.81
2016-05-23T03:04:36.539Z,58.91
2016-05-23T03:05:36.556Z,59.1
2016-05-23T03:06:36.512Z,58.78
2016-05-23T03:07:36.500Z,58.72
2016-05-23T03:08:36.487Z,58.91
2016-05-23T03:09:36.473Z,58.91
2016-05-23T03:10:36.461Z,58.81
2016-05-23T03:11:36.448Z,59
2016-05-23T03:12:36.436Z,58.62
2016-05-23T03:13:36.438Z,59.2
2016-05-23T03:14:36.425Z,59.3
2016-05-23T03:15:36.256Z,58.91
2016-05-23T03:16:36.400Z,58.81
2016-05-23T03:17:36.370Z,59.07
2016-05-23T03:18:36.372Z,58.81
2016-05-23T03:19:36.361Z,58.72
2016-05-23T03:20:36.347Z,59.39
2016-05-23T03:21:36.335Z,59.58
2016-05-23T03:22:36.322Z,58.91
2016-05-23T03:23:36.308Z,58.88
2016-05-23T03:24:36.296Z,58.91
2016-05-23T03:25:36.283Z,59.1
2016-05-23T03:26:36.270Z,59.2
2016-05-23T03:27:36.101Z,59.78
2016-05-23T03:28:36.243Z,58.81
2016-05-23T03:29:36.231Z,59
2016-05-23T03:30:36.218Z,58.91
2016-05-23T03:31:36.049Z,59.2
2016-05-23T03:32:36.192Z,58.91
2016-05-23T03:33:36.179Z,58.91
2016-05-23T03:34:36.165Z,58.91
2016-05-23T03:35:36.154Z,58.72
2016-05-23T03:36:35.984Z,58.91
2016-05-23T03:37:36.128Z,58.72
2016-05-23T03:38:36.114Z,58.81
2016-05-23T03:39:36.101Z,58.91
2016-05-23T03:40:36.089Z,58.91
2016-05-23T03:41:36.076Z,58.91
2016-05-23T03:42:36.062Z,58.72
2016-05-23T03:43:36.065Z,58.91
2016-05-23T03:44:36.053Z,58.72
2016-05-23T03:45:36.039Z,58.33
2016-05-23T03:46:36.011Z,58.72
2016-05-23T03:47:35.997Z,58.52
2016-05-23T03:48:35.986Z,58.42
2016-05-23T03:49:35.988Z,58.62
2016-05-23T03:50:35.819Z,58.33
2016-05-23T03:51:35.962Z,58.33
2016-05-23T03:52:35.949Z,58.52
2016-05-23T03:53:35.936Z,58.72
2016-05-23T03:54:35.924Z,58.81
2016-05-23T03:55:35.911Z,58.81
2016-05-23T03:56:35.897Z,58.52
2016-05-23T03:57:35.885Z,58.33
2016-05-23T03:58:35.871Z,58.62
2016-05-23T03:59:36.280Z,58.52
2016-05-23T04:00:35.846Z,58.33
2016-05-23T04:01:35.832Z,58.72
2016-05-23T04:02:35.820Z,58.42
2016-05-23T04:03:35.807Z,58.42
2016-05-23T04:04:35.794Z,58.42
2016-05-23T04:05:35.781Z,58.42
2016-05-23T04:06:35.768Z,58.72
2016-05-23T04:07:35.755Z,58.3
2016-05-23T04:08:35.743Z,58.72
2016-05-23T04:09:35.729Z,58.81
2016-05-23T04:10:35.717Z,58.42
2016-05-23T04:11:35.703Z,58.62
2016-05-23T04:12:35.690Z,58.62
2016-05-23T04:13:35.678Z,58.52
2016-05-23T04:14:35.806Z,58.81
2016-05-23T04:15:35.651Z,58.81
2016-05-23T04:16:35.654Z,58.59
2016-05-23T04:17:35.626Z,58.33
2016-05-23T04:18:35.472Z,58.72
2016-05-23T04:19:35.616Z,58.72
2016-05-23T04:20:35.603Z,58.52
2016-05-23T04:21:35.589Z,58.91
2016-05-23T04:22:35.420Z,58.72
2016-05-23T04:23:35.564Z,58.72
2016-05-23T04:24:35.550Z,58.52
2016-05-23T04:25:35.538Z,58.91
2016-05-23T04:26:35.525Z,58.62
2016-05-23T04:27:35.513Z,58.62
2016-05-23T04:28:35.499Z,58.81
2016-05-23T04:29:35.486Z,58.81
2016-05-23T04:30:35.473Z,58.81
2016-05-23T04:31:35.460Z,58.91
2016-05-23T04:32:35.446Z,58.72
2016-05-23T04:33:35.434Z,58.62
2016-05-23T04:34:35.421Z,58.81
2016-05-23T04:35:35.409Z,59.07
2016-05-23T04:36:35.412Z,58.69
2016-05-23T04:37:35.382Z,58.97
2016-05-23T04:38:35.432Z,59.27
2016-05-23T04:39:35.373Z,59.36
2016-05-23T04:40:35.343Z,59.65
2016-05-23T04:41:35.331Z,59.55
2016-05-23T04:42:35.318Z,59.84
2016-05-23T04:43:35.321Z,60.03
2016-05-23T04:44:35.151Z,59.84
2016-05-23T04:45:35.139Z,59.72
2016-05-23T04:46:35.423Z,59.55
2016-05-23T04:47:35.253Z,59.52
2016-05-23T04:48:35.256Z,59.62
2016-05-23T04:49:35.243Z,60
2016-05-23T04:50:35.059Z,59.91
2016-05-23T04:51:35.203Z,60.39
2016-05-23T04:52:35.188Z,59.81
2016-05-23T04:53:35.192Z,60.2
2016-05-23T04:54:35.460Z,60.1
2016-05-23T04:55:35.166Z,60.2
2016-05-23T04:56:35.153Z,59.81
2016-05-23T04:57:35.140Z,60.49
2016-05-23T04:58:35.127Z,60.1
2016-05-23T04:59:34.973Z,59.91
2016-05-23T05:00:35.102Z,60
2016-05-23T05:01:35.088Z,60
2016-05-23T05:02:35.466Z,60.97
2016-05-23T05:03:35.062Z,60.68
2016-05-23T05:04:34.893Z,60.58
2016-05-23T05:05:35.052Z,60.97
2016-05-23T05:06:35.024Z,60.97
2016-05-23T05:07:35.010Z,61.45
2016-05-23T05:08:34.998Z,61.25
2016-05-23T05:09:34.985Z,61.16
2016-05-23T05:10:35.471Z,61.45
2016-05-23T05:11:34.959Z,61.65
2016-05-23T05:12:34.946Z,61.35
2016-05-23T05:13:34.932Z,61.65
2016-05-23T05:14:35.451Z,61.35
2016-05-23T05:15:34.906Z,61.35
2016-05-23T05:16:34.895Z,61.83
2016-05-23T05:17:34.881Z,61.45
2016-05-23T05:18:35.509Z,60.97
2016-05-23T05:19:34.855Z,61.35
2016-05-23T05:20:34.702Z,61.55
2016-05-23T05:21:34.845Z,61.35
2016-05-23T05:22:34.831Z,61.25
2016-05-23T05:23:34.804Z,61.25
2016-05-23T05:24:34.791Z,61.35
2016-05-23T05:25:34.621Z,61.35
2016-05-23T05:26:35.515Z,61.35
2016-05-23T05:27:34.752Z,61.35
2016-05-23T05:28:34.755Z,62.03
2016-05-23T05:29:34.726Z,62.09
2016-05-23T05:30:34.713Z,62.32
2016-05-23T05:31:34.700Z,61.52
2016-05-23T05:32:34.702Z,61.45
2016-05-23T05:33:34.674Z,61.65
2016-05-23T05:34:34.708Z,61.74
2016-05-23T05:35:34.664Z,61.35
2016-05-23T05:36:36.151Z,61.35
2016-05-23T05:37:34.638Z,61.25
2016-05-23T05:38:34.610Z,61.35
2016-05-23T05:39:34.597Z,61.35
2016-05-23T05:40:34.584Z,61.16
2016-05-23T05:41:34.571Z,61.35
2016-05-23T05:42:34.777Z,61.35
2016-05-23T05:43:34.560Z,61.45
2016-05-23T05:44:34.548Z,61.25
2016-05-23T05:45:34.534Z,61.83
2016-05-23T05:46:34.521Z,61.55
2016-05-23T05:47:34.509Z,61.74
2016-05-23T05:48:34.495Z,61.45
2016-05-23T05:49:34.483Z,62.03
2016-05-23T05:50:34.767Z,61.55
2016-05-23T05:51:34.301Z,62.03
2016-05-23T05:52:34.428Z,61.83
2016-05-23T05:53:34.431Z,62.12
2016-05-23T05:54:34.262Z,61.65
2016-05-23T05:55:34.405Z,61.83
2016-05-23T05:56:34.392Z,61.25
2016-05-23T05:57:34.426Z,61.25
2016-05-23T05:58:35.523Z,61.45
2016-05-23T05:59:34.400Z,61.07
2016-05-23T06:00:34.341Z,61.35
2016-05-23T06:01:34.172Z,61.25
2016-05-23T06:02:34.315Z,61.55
2016-05-23T06:03:34.302Z,61.25
2016-05-23T06:04:34.274Z,61.35
2016-05-23T06:05:34.417Z,61.55
2016-05-23T06:06:34.263Z,61.55
2016-05-23T06:07:34.249Z,61.55
2016-05-23T06:08:34.237Z,61.25
2016-05-23T06:09:34.224Z,61.35
2016-05-23T06:10:34.227Z,61.45
2016-05-23T06:11:34.198Z,61.35
2016-05-23T06:12:34.185Z,61.74
2016-05-23T06:13:34.422Z,61.25
2016-05-23T06:14:34.160Z,61.45
2016-05-23T06:15:34.146Z,61.45
2016-05-23T06:16:34.134Z,61.55
2016-05-23T06:17:34.137Z,61.55
2016-05-23T06:18:34.108Z,61.35
2016-05-23T06:19:34.095Z,60.97
2016-05-23T06:20:34.098Z,61.65
2016-05-23T06:21:34.335Z,61.16
2016-05-23T06:22:34.056Z,61.55
2016-05-23T06:23:34.042Z,61.25
2016-05-23T06:24:34.233Z,61.16
2016-05-23T06:25:34.017Z,61.55
2016-05-23T06:26:34.004Z,61.45
2016-05-23T06:27:33.991Z,61.35
2016-05-23T06:28:33.978Z,61.25
2016-05-23T06:29:34.419Z,61.16
2016-05-23T06:30:33.953Z,61.45
2016-05-23T06:31:33.971Z,61.65
2016-05-23T06:32:33.927Z,61.45
2016-05-23T06:33:33.914Z,61.35
2016-05-23T06:34:33.917Z,61.45
2016-05-23T06:35:33.888Z,60.97
2016-05-23T06:36:33.875Z,61.35
2016-05-23T06:37:34.425Z,61.25
2016-05-23T06:38:33.850Z,61.35
2016-05-23T06:39:33.679Z,61.65
2016-05-23T06:40:33.824Z,61.65
2016-05-23T06:41:33.810Z,61.45
2016-05-23T06:42:33.797Z,61.16
2016-05-23T06:43:33.784Z,61.35
2016-05-23T06:44:33.771Z,61.55
2016-05-23T06:45:34.305Z,61.35
2016-05-23T06:46:33.746Z,61.35
2016-05-23T06:47:33.733Z,61.42
2016-05-23T06:48:33.746Z,60.97
2016-05-23T06:49:33.602Z,60.75
2016-05-23T06:50:33.770Z,61.07
2016-05-23T06:51:33.783Z,60.77
2016-05-23T06:52:33.639Z,61.45
2016-05-23T06:53:34.587Z,60.97
2016-05-23T06:54:33.646Z,61.07
2016-05-23T06:55:33.783Z,60.97
2016-05-23T06:56:33.781Z,61.55
2016-05-23T06:57:33.776Z,61.55
2016-05-23T06:58:33.610Z,61.07
2016-05-23T06:59:33.928Z,61.25
2016-05-23T07:00:33.747Z,61.25
2016-05-23T07:01:33.940Z,61.45
2016-05-23T07:02:33.743Z,61.25
2016-05-23T07:03:33.715Z,61.65
2016-05-23T07:04:33.704Z,61.25
2016-05-23T07:05:33.707Z,61.45
2016-05-23T07:06:33.679Z,61.45
2016-05-23T07:07:33.683Z,61.35
2016-05-23T07:08:33.655Z,60.77
2016-05-23T07:09:33.924Z,61.55
2016-05-23T07:10:33.647Z,61.16
2016-05-23T07:11:33.461Z,61.45
2016-05-23T07:12:33.620Z,60.94
2016-05-23T07:13:33.593Z,61.16
2016-05-23T07:14:33.440Z,61.45
2016-05-23T07:15:33.567Z,61.07
2016-05-23T07:16:34.696Z,61.13
2016-05-23T07:17:33.949Z,61.35
2016-05-23T07:18:33.373Z,61.22
2016-05-23T07:19:33.516Z,61.35
2016-05-23T07:20:33.504Z,61.42
2016-05-23T07:21:33.491Z,61.13
2016-05-23T07:22:33.478Z,61.55
2016-05-23T07:23:33.465Z,61.32
2016-05-23T07:24:33.452Z,62.09
2016-05-23T07:25:33.439Z,61.35
2016-05-23T07:26:33.442Z,61.74
2016-05-23T07:27:33.412Z,61.52
2016-05-23T07:28:33.415Z,61.16
2016-05-23T07:29:33.231Z,61.25
2016-05-23T07:30:33.374Z,61.45
2016-05-23T07:31:33.376Z,61.35
2016-05-23T07:32:33.364Z,61.35
2016-05-23T07:33:33.335Z,61.35
2016-05-23T07:34:33.163Z,61.35
2016-05-23T07:35:33.307Z,61.45
2016-05-23T07:36:33.309Z,61.25
2016-05-23T07:37:33.281Z,61.35
2016-05-23T07:38:33.284Z,61.22
2016-05-23T07:39:33.271Z,61.35
2016-05-23T07:40:33.242Z,61.22
2016-05-23T07:41:33.261Z,61.35
2016-05-23T07:42:33.232Z,61.32
2016-05-23T07:43:33.203Z,60.97
2016-05-23T07:44:33.471Z,61.22
2016-05-23T07:45:33.194Z,61.35
2016-05-23T07:46:33.164Z,61.65
2016-05-23T07:47:33.151Z,60.97
2016-05-23T07:48:33.138Z,61.52
2016-05-23T07:49:32.985Z,61.61
2016-05-23T07:50:33.143Z,61.22
2016-05-23T07:51:33.116Z,61.22
2016-05-23T07:52:33.102Z,61.42
2016-05-23T07:53:33.090Z,61.65
2016-05-23T07:54:33.060Z,61.55
2016-05-23T07:55:33.063Z,61.16
2016-05-23T07:56:33.035Z,61.35
2016-05-23T07:57:33.038Z,61.25
2016-05-23T07:58:33.025Z,61.07
2016-05-23T07:59:32.840Z,60.97
2016-05-23T08:00:32.842Z,61.07
2016-05-23T08:01:32.971Z,61.22
2016-05-23T08:02:32.973Z,61.32
2016-05-23T08:03:32.960Z,61.35
2016-05-23T08:04:32.947Z,61.07
2016-05-23T08:05:32.919Z,61.61
2016-05-23T08:06:32.922Z,61.35
2016-05-23T08:07:32.909Z,61.25
2016-05-23T08:08:32.880Z,61.74
2016-05-23T08:09:32.711Z,61.35
2016-05-23T08:10:32.698Z,61.55
2016-05-23T08:11:32.842Z,61.8
2016-05-23T08:12:32.844Z,62.09
2016-05-23T08:13:32.816Z,62.19
2016-05-23T08:14:32.772Z,62
2016-05-23T08:15:32.789Z,61.71
2016-05-23T08:16:33.744Z,61.74
2016-05-23T08:17:32.779Z,61.8
2016-05-23T08:18:32.766Z,61.35
2016-05-23T08:19:32.738Z,61.35
2016-05-23T08:20:32.741Z,61.35
2016-05-23T08:21:32.712Z,61.16
2016-05-23T08:22:32.715Z,61.25
2016-05-23T08:23:32.717Z,61.07
2016-05-23T08:24:32.688Z,60.39
2016-05-23T08:25:32.675Z,60.39
2016-05-23T08:26:32.507Z,59.84
2016-05-23T08:27:32.634Z,59.36
2016-05-23T08:28:32.637Z,59.17
2016-05-23T08:29:32.623Z,59.27
2016-05-23T08:30:32.611Z,58.81
2016-05-23T08:31:32.582Z,58.91
2016-05-23T08:32:32.601Z,58.69
2016-05-23T08:33:32.415Z,58.42
2016-05-23T08:34:32.434Z,58.42
2016-05-23T08:35:32.546Z,58.42
2016-05-23T08:36:32.534Z,58.42
2016-05-23T08:37:32.536Z,58.33
2016-05-23T08:38:32.539Z,58.52
2016-05-23T08:39:32.511Z,58.91
2016-05-23T08:40:32.513Z,58.62
2016-05-23T08:41:32.500Z,58.14
2016-05-23T08:42:32.455Z,58.52
2016-05-23T08:43:32.458Z,58.23
2016-05-23T08:44:32.805Z,58.33
2016-05-23T08:45:32.433Z,58.04
2016-05-23T08:46:32.405Z,57.94
2016-05-23T08:47:32.391Z,58.04
2016-05-23T08:48:32.378Z,58.23
2016-05-23T08:49:32.366Z,58.23
2016-05-23T08:50:32.196Z,58.42
2016-05-23T08:51:32.338Z,58.33
2016-05-23T08:52:32.326Z,58.04
2016-05-23T08:53:32.313Z,57.94
2016-05-23T08:54:32.301Z,57.85
2016-05-23T08:55:32.288Z,58.62
2016-05-23T08:56:32.119Z,58.23
2016-05-23T08:57:32.262Z,58.33
2016-05-23T08:58:32.249Z,58.14
2016-05-23T08:59:32.267Z,58.14
2016-05-23T09:00:32.223Z,58.04
2016-05-23T09:01:32.210Z,58.52
2016-05-23T09:02:32.197Z,58.23
2016-05-23T09:03:32.184Z,58.52
2016-05-23T09:04:32.171Z,58.62
2016-05-23T09:05:32.159Z,58.81
2016-05-23T09:06:32.145Z,58.52
2016-05-23T09:07:32.132Z,58.52
2016-05-23T09:08:32.120Z,58.81
2016-05-23T09:09:32.106Z,58.62
2016-05-23T09:10:32.094Z,58.72
2016-05-23T09:11:32.096Z,58.72
2016-05-23T09:12:32.067Z,58.91
2016-05-23T09:13:32.055Z,58.33
2016-05-23T09:14:32.058Z,58.33
2016-05-23T09:15:32.029Z,58.33
2016-05-23T09:16:32.016Z,58.62
2016-05-23T09:17:32.019Z,58.33
2016-05-23T09:18:31.991Z,58.81
2016-05-23T09:19:31.978Z,58.42
2016-05-23T09:20:31.964Z,58.52
2016-05-23T09:21:31.952Z,58.52
2016-05-23T09:22:31.938Z,58.91
2016-05-23T09:23:31.925Z,58.52
2016-05-23T09:24:31.927Z,58.72
2016-05-23T09:25:31.946Z,58.72
2016-05-23T09:26:31.887Z,58.52
2016-05-23T09:27:31.733Z,58.52
2016-05-23T09:28:31.704Z,58.62
2016-05-23T09:29:31.863Z,58.72
2016-05-23T09:30:31.851Z,58.72
2016-05-23T09:31:31.665Z,58.62
2016-05-23T09:32:33.043Z,58.33
2016-05-23T09:33:31.952Z,58.62
2016-05-23T09:34:31.798Z,58.52
2016-05-23T09:35:31.614Z,58.52
2016-05-23T09:36:31.757Z,58.62
2016-05-23T09:37:31.775Z,58.62
2016-05-23T09:38:31.747Z,58.62
2016-05-23T09:39:31.734Z,58.62
2016-05-23T09:40:31.705Z,58.33
2016-05-23T09:41:31.989Z,58.23
2016-05-23T09:42:31.742Z,58.81
2016-05-23T09:43:31.698Z,58.62
2016-05-23T09:44:31.686Z,58.72
2016-05-23T09:45:31.656Z,58.52
2016-05-23T09:46:31.644Z,58.52
2016-05-23T09:47:33.927Z,58.33
2016-05-23T09:48:31.618Z,58.33
2016-05-23T09:49:31.949Z,58.52
2016-05-23T09:50:31.591Z,58.33
2016-05-23T09:51:31.579Z,58.62
2016-05-23T09:52:33.378Z,58.52
2016-05-23T09:53:31.397Z,58.42
2016-05-23T09:54:31.540Z,58.52
2016-05-23T09:55:31.543Z,58.62
2016-05-23T09:56:31.514Z,58.33
2016-05-23T09:57:33.141Z,58.33
2016-05-23T09:58:31.488Z,58.62
2016-05-23T09:59:31.366Z,58.81
2016-05-23T10:00:31.463Z,58.33
2016-05-23T10:01:31.449Z,58.62
2016-05-23T10:02:33.390Z,58.52
2016-05-23T10:03:31.424Z,58.72
2016-05-23T10:04:31.427Z,58.81
2016-05-23T10:05:31.992Z,58.81
2016-05-23T10:06:31.385Z,58.62
2016-05-23T10:07:32.122Z,58.81
2016-05-23T10:08:31.359Z,58.52
2016-05-23T10:09:31.345Z,58.81
2016-05-23T10:10:31.348Z,58.42
2016-05-23T10:11:31.320Z,58.72
2016-05-23T10:12:31.323Z,58.33
2016-05-23T10:13:31.997Z,58.72
2016-05-23T10:14:31.297Z,58.81
2016-05-23T10:15:31.284Z,58.81
2016-05-23T10:16:31.272Z,58.52
2016-05-23T10:17:31.258Z,58.91
2016-05-23T10:18:31.229Z,58.81
2016-05-23T10:19:31.545Z,58.62
2016-05-23T10:20:31.203Z,58.52
2016-05-23T10:21:32.003Z,58.52
2016-05-23T10:22:31.193Z,58.81
2016-05-23T10:23:31.165Z,58.42
2016-05-23T10:24:31.183Z,58.52
2016-05-23T10:25:31.155Z,58.81
2016-05-23T10:26:31.141Z,58.14
2016-05-23T10:27:31.129Z,58.52
2016-05-23T10:28:31.100Z,57.85
2016-05-23T10:29:33.635Z,58.14
2016-05-23T10:30:31.090Z,58.14
2016-05-23T10:31:31.077Z,58.14
2016-05-23T10:32:31.065Z,58.04
2016-05-23T10:33:31.052Z,58.52
2016-05-23T10:34:31.037Z,58.42
2016-05-23T10:35:31.025Z,58.33
2016-05-23T10:36:31.012Z,58.33
2016-05-23T10:37:31.249Z,58.23
2016-05-23T10:38:30.986Z,58.14
2016-05-23T10:39:32.958Z,58.04
2016-05-23T10:40:30.961Z,57.94
2016-05-23T10:41:30.948Z,58.42
2016-05-23T10:42:30.950Z,57.94
2016-05-23T10:43:30.922Z,58.04
2016-05-23T10:44:32.377Z,57.85
2016-05-23T10:45:31.302Z,57.94
2016-05-23T10:46:30.883Z,57.85
2016-05-23T10:47:30.870Z,57.94
2016-05-23T10:48:30.700Z,58.04
2016-05-23T10:49:30.844Z,57.56
2016-05-23T10:50:30.831Z,57.85
2016-05-23T10:51:30.819Z,57.75
2016-05-23T10:52:30.914Z,57.65
2016-05-23T10:53:31.292Z,58.04
2016-05-23T10:54:30.780Z,58.14
2016-05-23T10:55:30.767Z,57.65
2016-05-23T10:56:30.769Z,58.04
2016-05-23T10:57:30.756Z,58.33
2016-05-23T10:58:30.587Z,57.78
2016-05-23T10:59:30.730Z,58.14
2016-05-23T11:00:30.968Z,57.87
2016-05-23T11:01:30.688Z,58.14
2016-05-23T11:02:30.535Z,57.78
2016-05-23T11:03:30.663Z,57.97
2016-05-23T11:04:30.666Z,57.75
2016-05-23T11:05:30.653Z,57.65
2016-05-23T11:06:30.640Z,57.46
2016-05-23T11:07:30.612Z,57.75
2016-05-23T11:08:30.912Z,57.56
2016-05-23T11:09:30.601Z,57.39
2016-05-23T11:10:30.588Z,56.59
2016-05-23T11:11:30.575Z,56.21
2016-05-23T11:12:30.562Z,56.4
2016-05-23T11:13:30.596Z,56.3
2016-05-23T11:14:30.380Z,56.47
2016-05-23T11:15:30.523Z,55.89
2016-05-23T11:16:31.058Z,55.7
2016-05-23T11:17:30.498Z,55.99
2016-05-23T11:18:30.485Z,56.27
2016-05-23T11:19:30.487Z,55.99
2016-05-23T11:20:30.459Z,55.6
2016-05-23T11:21:30.446Z,55.89
2016-05-23T11:22:30.433Z,55.7
2016-05-23T11:23:30.420Z,55.99
2016-05-23T11:24:30.954Z,55.89
2016-05-23T11:25:30.394Z,55.89
2016-05-23T11:26:30.381Z,55.89
2016-05-23T11:27:30.384Z,55.31
2016-05-23T11:28:30.355Z,55.77
2016-05-23T11:29:30.233Z,55.96
2016-05-23T11:30:30.346Z,55.79
2016-05-23T11:31:30.316Z,55.29
2016-05-23T11:32:31.007Z,55.77
2016-05-23T11:33:30.307Z,55.77
2016-05-23T11:34:30.294Z,55.77
2016-05-23T11:35:30.265Z,55.67
2016-05-23T11:36:30.252Z,55.87
2016-05-23T11:37:30.240Z,55.67
2016-05-23T11:38:30.226Z,55.38
2016-05-23T11:39:30.229Z,55.48
2016-05-23T11:40:30.262Z,55.38
2016-05-23T11:41:30.187Z,55.77
2016-05-23T11:42:30.190Z,55.38
2016-05-23T11:43:30.176Z,54.52
2016-05-23T11:44:30.164Z,55.09
2016-05-23T11:45:30.136Z,55.77
2016-05-23T11:46:30.138Z,55.57
2016-05-23T11:47:29.953Z,54.9
2016-05-23T11:48:31.065Z,55.38
2016-05-23T11:49:30.099Z,54.61
2016-05-23T11:50:30.086Z,54.61
2016-05-23T11:51:30.073Z,54.61
2016-05-23T11:52:30.061Z,55
2016-05-23T11:53:30.033Z,54.71
2016-05-23T11:54:30.019Z,55.09
2016-05-23T11:55:30.006Z,54.52
2016-05-23T11:56:30.258Z,54.61
2016-05-23T11:57:29.996Z,54.42
2016-05-23T11:58:29.983Z,54.42
2016-05-23T11:59:29.986Z,55.48
2016-05-23T12:00:29.942Z,55
2016-05-23T12:01:29.787Z,54.83
2016-05-23T12:02:29.946Z,53.77
2016-05-23T12:03:29.902Z,53.96
2016-05-23T12:04:30.249Z,54.35
2016-05-23T12:05:29.893Z,54.06
2016-05-23T12:06:29.880Z,53.89
2016-05-23T12:07:29.866Z,54.66
2016-05-23T12:08:29.854Z,54.09
2016-05-23T12:09:29.857Z,53.51
2016-05-23T12:10:29.829Z,53.73
2016-05-23T12:11:29.831Z,53.25
2016-05-23T12:12:30.254Z,52.76
2016-05-23T12:13:29.789Z,52.69
2016-05-23T12:14:29.870Z,52.59
2016-05-23T12:15:29.607Z,52.95
2016-05-23T12:16:29.750Z,53.73
2016-05-23T12:17:29.737Z,53.83
2016-05-23T12:18:29.724Z,54.5
2016-05-23T12:19:29.711Z,54.4
2016-05-23T12:20:29.698Z,53.92
2016-05-23T12:21:29.686Z,53.83
2016-05-23T12:22:29.517Z,53.8
2016-05-23T12:23:29.659Z,54.76
2016-05-23T12:24:29.647Z,54.66
2016-05-23T12:25:29.633Z,54.83
2016-05-23T12:26:29.621Z,54.44
2016-05-23T12:27:29.608Z,54.44
2016-05-23T12:28:29.595Z,54.35
2016-05-23T12:29:29.847Z,55.02
2016-05-23T12:30:29.569Z,54.93
2016-05-23T12:31:29.556Z,55.02
2016-05-23T12:32:29.558Z,54.93
2016-05-23T12:33:29.530Z,54.9
2016-05-23T12:34:29.517Z,55.29
2016-05-23T12:35:29.504Z,55.38
2016-05-23T12:36:29.554Z,55.67
2016-05-23T12:37:29.479Z,55.48
2016-05-23T12:38:29.575Z,55
2016-05-23T12:39:29.468Z,54.9
2016-05-23T12:40:29.470Z,54.71
2016-05-23T12:41:29.426Z,55
2016-05-23T12:42:29.414Z,54.71
2016-05-23T12:43:29.401Z,54.42
2016-05-23T12:44:29.654Z,54.42
2016-05-23T12:45:29.390Z,54.03
2016-05-23T12:46:29.378Z,54.06
2016-05-23T12:47:29.209Z,54.35
2016-05-23T12:48:29.337Z,54.54
2016-05-23T12:49:29.433Z,54.52
2016-05-23T12:50:29.341Z,54.64
2016-05-23T12:51:29.314Z,54.22
2016-05-23T12:52:29.534Z,54.9
2016-05-23T12:53:31.037Z,54.32
2016-05-23T12:54:29.118Z,54.64
2016-05-23T12:55:29.261Z,54.44
2016-05-23T12:56:29.232Z,54.52
2016-05-23T12:57:29.235Z,54.54